Time;durP1;ratioP1;P1;durP2;ratioP2;P2;SDS_P1;SDS_P2;PMS_P1;PMS_P2;Temp;Humidity;BMP_temperature;BMP_pressure;BME280_temperature;BME280_humidity;BME280_pressure;Samples;Min_cycle;Max_cycle;Signal;HPM_P1;HPM_P2
2022/06/10 00:02:16;;;;;;;5.80;3.92;;;;;;;16.94;72.89;97689.20;1810185;78;20984;-62
2022/06/10 00:04:44;;;;;;;8.55;4.70;;;;;;;16.98;72.97;97682.78;1809257;79;21525;-62
2022/06/10 00:07:11;;;;;;;10.03;4.28;;;;;;;17.02;72.87;97685.61;1811855;79;21109;-60
2022/06/10 00:09:39;;;;;;;6.05;3.80;;;;;;;17.04;72.79;97689.56;1813999;79;20880;-58
2022/06/10 00:12:07;;;;;;;5.90;4.17;;;;;;;17.05;72.42;97687.66;1814006;79;20995;-57
2022/06/10 00:14:35;;;;;;;8.78;4.12;;;;;;;17.06;72.33;97690.56;1814319;79;20964;-58
2022/06/10 00:17:01;;;;;;;5.58;3.58;;;;;;;17.08;72.20;97693.72;1814034;79;20917;-60
2022/06/10 00:19:29;;;;;;;5.62;3.67;;;;;;;17.07;71.95;97685.39;1814112;79;21314;-59
2022/06/10 00:21:55;;;;;;;6.50;4.08;;;;;;;17.12;71.45;97687.88;1814125;79;21443;-58
2022/06/10 00:24:22;;;;;;;9.75;4.85;;;;;;;17.17;71.46;97688.97;1814070;79;20865;-60
2022/06/10 00:26:49;;;;;;;8.15;4.75;;;;;;;17.15;71.71;97685.81;1813978;79;20893;-62
2022/06/10 00:29:15;;;;;;;7.67;4.25;;;;;;;17.05;71.74;97687.66;1813998;79;20932;-60
2022/06/10 00:31:43;;;;;;;7.33;3.62;;;;;;;16.99;71.70;97688.43;1814105;79;21093;-58
2022/06/10 00:34:09;;;;;;;6.45;4.30;;;;;;;16.99;71.90;97690.34;1814042;79;20865;-59
2022/06/10 00:36:35;;;;;;;11.80;5.08;;;;;;;16.98;72.10;97691.48;1813950;79;20885;-62
2022/06/10 00:39:03;;;;;;;19.48;4.70;;;;;;;16.99;72.14;97690.34;1814279;79;21376;-62
2022/06/10 00:41:29;;;;;;;6.87;4.45;;;;;;;17.00;72.06;97697.34;1814124;79;20904;-58
2022/06/10 00:43:56;;;;;;;6.05;3.92;;;;;;;17.00;72.00;97693.28;1813993;79;21105;-58
2022/06/10 00:46:34;;;;;;;10.68;4.33;;;;;;;16.99;72.09;97696.55;1813874;79;21430;-60
2022/06/10 00:49:12;;;;;;;5.37;3.77;;;;;;;16.96;72.00;97692.36;1814165;79;20876;-61
2022/06/10 00:51:50;;;;;;;8.28;4.62;;;;;;;16.92;72.03;97691.47;1814248;78;20880;-62
2022/06/10 00:54:41;;;;;;;7.42;4.62;;;;;;;16.86;72.04;97690.13;1814160;79;21015;-58
2022/06/10 00:57:29;;;;;;;6.28;4.20;;;;;;;16.80;72.31;97696.87;1818398;78;20873;-58
2022/06/10 01:00:06;;;;;;;4.95;3.62;;;;;;;16.70;72.54;97697.33;1814168;79;20924;-60
2022/06/10 01:02:35;;;;;;;6.65;4.17;;;;;;;16.66;72.78;97702.61;1814260;79;20945;-60
2022/06/10 01:05:12;;;;;;;4.28;3.55;;;;;;;16.67;72.95;97707.46;1814091;79;20927;-61
2022/06/10 01:07:44;;;;;;;6.67;3.75;;;;;;;16.71;72.92;97709.71;1814342;79;21439;-59
2022/06/10 01:10:13;;;;;;;9.63;3.90;;;;;;;16.71;72.86;97696.19;1813542;78;21069;-58
2022/06/10 01:13:15;;;;;;;5.45;3.50;;;;;;;16.75;72.51;97703.84;1791915;79;20880;-59
2022/06/10 01:15:47;;;;;;;6.30;3.75;;;;;;;16.81;72.11;97697.11;1814238;79;20896;-61
2022/06/10 01:18:44;;;;;;;8.48;4.00;;;;;;;16.84;71.82;97704.56;1814238;79;21482;-62
2022/06/10 01:21:25;;;;;;;6.90;3.33;;;;;;;16.86;71.68;97700.95;1814126;78;20896;-60
2022/06/10 01:24:10;;;;;;;4.45;3.50;;;;;;;16.92;71.33;97707.70;1814168;79;21217;-58
2022/06/10 01:30:27;;;;;;;7.83;3.35;;;;;;;16.98;70.54;97699.60;1814226;79;20877;-57
2022/06/10 01:33:21;;;;;;;6.40;3.75;;;;;;;17.01;70.50;97698.34;1814219;79;21008;-61
2022/06/10 01:36:30;;;;;;;9.83;3.67;;;;;;;17.00;70.63;97708.16;1814247;79;21474;-58
2022/06/10 01:39:25;;;;;;;7.22;3.87;;;;;;;16.91;71.20;97706.14;1814239;79;21077;-59
2022/06/10 01:42:06;;;;;;;11.78;3.95;;;;;;;16.76;71.58;97713.00;1814308;79;20900;-59
2022/06/10 01:44:51;;;;;;;7.15;3.80;;;;;;;16.59;72.09;97712.39;1814477;79;21360;-59
2022/06/10 01:47:25;;;;;;;6.28;4.03;;;;;;;16.51;72.38;97711.91;1814189;79;20889;-58
2022/06/10 01:50:06;;;;;;;7.30;4.22;;;;;;;16.47;72.70;97713.69;1814292;79;20912;-58
2022/06/10 01:52:44;;;;;;;5.28;3.90;;;;;;;16.43;73.04;97714.37;1813941;79;21081;-62
2022/06/10 01:55:33;;;;;;;5.58;3.70;;;;;;;16.41;73.11;97709.88;1814421;79;20857;-62
2022/06/10 01:58:13;;;;;;;8.48;3.60;;;;;;;16.34;73.33;97715.59;1814096;79;20868;-61
2022/06/10 02:00:44;;;;;;;7.40;3.52;;;;;;;16.22;73.70;97723.09;1813021;79;20948;-59
2022/06/10 02:03:33;;;;;;;6.00;3.50;;;;;;;16.11;74.08;97719.80;1785230;79;20877;-59
2022/06/10 02:06:06;;;;;;;7.12;3.70;;;;;;;16.05;74.39;97721.90;1797100;79;21919;-59
2022/06/10 02:08:43;;;;;;;5.47;3.85;;;;;;;16.01;74.60;97716.14;1798089;79;20896;-59
2022/06/10 02:11:13;;;;;;;7.53;3.62;;;;;;;16.00;74.79;97715.91;1798062;79;20897;-60
2022/06/10 02:13:54;;;;;;;5.72;4.05;;;;;;;16.02;74.95;97721.20;1798106;79;20881;-60
2022/06/10 02:16:27;;;;;;;7.00;4.00;;;;;;;16.01;75.02;97726.95;1796807;79;20881;-60
2022/06/10 02:19:16;;;;;;;13.10;4.33;;;;;;;15.99;75.11;97721.09;1797941;79;21224;-60
2022/06/10 02:21:49;;;;;;;4.35;3.42;;;;;;;15.93;75.25;97723.20;1797861;79;20905;-60
2022/06/10 02:24:38;;;;;;;5.42;3.60;;;;;;;15.89;75.40;97718.78;1797889;79;21432;-58
2022/06/10 02:27:21;;;;;;;7.45;3.47;;;;;;;15.87;75.59;97724.53;1798111;79;21510;-61
2022/06/10 02:30:18;;;;;;;8.08;4.03;;;;;;;15.86;75.81;97726.98;1797967;79;20905;-62
2022/06/10 02:32:45;;;;;;;5.20;3.75;;;;;;;15.86;75.85;97725.64;1796645;79;21125;-62
2022/06/10 02:35:13;;;;;;;7.35;4.00;;;;;;;15.89;75.88;97727.69;1797795;79;20885;-57
2022/06/10 02:38:05;;;;;;;6.08;3.90;;;;;;;15.92;75.96;97723.53;1798401;79;21356;-62
2022/06/10 02:40:48;;;;;;;3.98;3.58;;;;;;;15.92;75.95;97720.84;1798108;79;20877;-61
2022/06/10 02:44:00;;;;;;;6.30;3.62;;;;;;;15.90;75.83;97717.09;1798256;79;21491;-57
2022/06/10 02:46:31;;;;;;;5.67;3.70;;;;;;;15.83;75.91;97724.94;1734276;82;21520;-59
2022/06/10 02:49:12;;;;;;;4.97;3.30;;;;;;;15.76;76.21;97725.26;1754027;81;20917;-60
2022/06/10 02:51:38;;;;;;;6.37;3.83;;;;;;;15.74;76.43;97725.57;1759927;81;20924;-61
2022/06/10 02:54:15;;;;;;;7.80;3.92;;;;;;;15.76;76.67;97724.67;1759953;81;20942;-62
2022/06/10 02:56:41;;;;;;;;;;;;;;;15.80;76.77;97728.32;1762581;81;20883;-61
2022/06/10 03:02:14;;;;;;;5.55;3.58;;;;;;;15.84;76.80;97732.48;1768121;80;20855;-60
2022/06/10 03:04:59;;;;;;;6.12;3.65;;;;;;;15.86;76.84;97732.94;1775307;80;20878;-57
2022/06/10 03:07:43;;;;;;;5.72;3.67;;;;;;;15.89;76.96;97738.48;1813710;79;21442;-60
2022/06/10 03:10:47;;;;;;;13.13;4.40;;;;;;;15.94;76.80;97738.30;1814178;78;21383;-60
2022/06/10 03:13:54;;;;;;;5.55;3.67;;;;;;;15.99;76.72;97740.77;1814438;79;21114;-62
2022/06/10 03:16:42;;;;;;;6.92;4.10;;;;;;;16.04;76.55;97741.92;1814073;79;20900;-62
2022/06/10 03:19:42;;;;;;;8.65;3.75;;;;;;;16.10;76.45;97740.61;1814037;79;20904;-62
2022/06/10 03:22:38;;;;;;;8.75;3.72;;;;;;;16.16;76.38;97747.93;1814104;79;20892;-59
2022/06/10 03:25:30;;;;;;;11.15;4.30;;;;;;;16.18;76.34;97747.83;1785392;79;20983;-59
2022/06/10 03:28:35;;;;;;;8.88;4.03;;;;;;;16.16;76.49;97748.73;1814028;79;21252;-61
2022/06/10 03:31:16;;;;;;;7.60;4.25;;;;;;;16.15;76.68;97749.07;1813962;79;20836;-58
2022/06/10 03:33:47;;;;;;;6.50;4.05;;;;;;;16.16;76.77;97754.13;1814053;79;20837;-58
2022/06/10 03:36:21;;;;;;;8.38;3.72;;;;;;;16.20;76.77;97753.69;1813997;79;21043;-63
2022/06/10 03:38:49;;;;;;;5.58;3.50;;;;;;;16.28;76.74;97756.88;1814348;79;20968;-62
2022/06/10 03:41:29;;;;;;;5.03;3.55;;;;;;;16.36;76.81;97753.33;1814011;79;21105;-61
2022/06/10 03:43:57;;;;;;;8.10;3.70;;;;;;;16.48;76.82;97752.56;1808559;79;20968;-62
2022/06/10 03:46:26;;;;;;;9.93;3.80;;;;;;;16.58;76.77;97756.80;1814008;79;20908;-58
2022/06/10 03:48:53;;;;;;;8.38;4.03;;;;;;;16.63;76.91;97757.94;1814287;79;20876;-59
2022/06/10 03:51:20;;;;;;;7.22;3.98;;;;;;;16.64;77.20;97755.45;1814036;79;20841;-59
2022/06/10 03:53:47;;;;;;;9.93;4.50;;;;;;;16.68;77.40;97754.99;1791654;79;21121;-62
2022/06/10 03:56:23;;;;;;;10.05;3.87;;;;;;;16.74;77.41;97759.08;1813925;79;20876;-58
2022/06/10 03:58:50;;;;;;;10.45;4.50;;;;;;;16.83;77.28;97761.91;1814024;79;20900;-59
2022/06/10 04:01:16;;;;;;;5.92;4.20;;;;;;;16.95;76.96;97764.64;1813836;79;20979;-59
2022/06/10 04:03:43;;;;;;;8.63;4.80;;;;;;;17.05;76.52;97760.70;1814389;79;21419;-58
2022/06/10 04:06:11;;;;;;;11.35;5.40;;;;;;;17.17;76.09;97761.27;1813993;79;21171;-60
2022/06/10 04:08:38;;;;;;;9.63;5.30;;;;;;;17.29;75.63;97764.75;1814017;79;20888;-60
2022/06/10 04:11:06;;;;;;;11.03;5.20;;;;;;;17.41;75.54;97763.39;1814048;79;20916;-61
2022/06/10 04:13:32;;;;;;;15.23;6.30;;;;;;;17.54;75.47;97766.36;1814089;79;20892;-59
2022/06/10 04:15:59;;;;;;;11.30;5.70;;;;;;;17.64;75.43;97769.17;1814315;79;21419;-62
2022/06/10 04:18:25;;;;;;;11.15;5.85;;;;;;;17.74;75.34;97770.83;1814095;79;21097;-65
2022/06/10 04:20:52;;;;;;;10.58;5.25;;;;;;;17.87;75.36;97770.81;1813930;79;20877;-61
2022/06/10 04:23:19;;;;;;;12.95;6.15;;;;;;;18.01;75.32;97767.95;1814259;79;20841;-60
2022/06/10 04:25:45;;;;;;;17.07;6.87;;;;;;;18.17;75.12;97769.36;1814204;79;20975;-63
2022/06/10 04:28:13;;;;;;;13.95;6.87;;;;;;;18.32;74.99;97774.82;1814196;79;20845;-64
2022/06/10 04:30:46;;;;;;;14.43;6.05;;;;;;;18.46;74.98;97775.83;1814364;79;21379;-60
2022/06/10 04:33:13;;;;;;;16.82;5.78;;;;;;;18.58;74.89;97777.13;1814414;79;21387;-63
2022/06/10 04:35:42;;;;;;;20.50;5.87;;;;;;;18.68;74.62;97782.03;1814225;79;20848;-63
2022/06/10 04:38:08;;;;;;;8.20;5.05;;;;;;;18.79;74.09;97779.05;1814442;79;20897;-65
2022/06/10 04:40:37;;;;;;;13.30;4.87;;;;;;;18.92;73.48;97784.61;1814274;79;21010;-62
2022/06/10 04:43:06;;;;;;;10.82;4.53;;;;;;;19.05;72.66;97783.37;1814148;79;21288;-61
2022/06/10 04:45:40;;;;;;;9.80;4.53;;;;;;;19.23;72.06;97781.68;1814390;79;21000;-59
2022/06/10 04:48:07;;;;;;;8.60;4.35;;;;;;;19.38;71.43;97783.08;1814249;79;20912;-62
2022/06/10 04:50:34;;;;;;;9.78;4.25;;;;;;;19.54;70.46;97785.20;1814444;79;21493;-63
2022/06/10 04:53:01;;;;;;;8.75;3.70;;;;;;;19.69;69.59;97783.00;1814160;79;20869;-60
2022/06/10 04:55:27;;;;;;;11.45;3.90;;;;;;;19.85;68.52;97791.13;1814323;79;21510;-60
2022/06/10 04:57:55;;;;;;;8.93;4.05;;;;;;;19.98;67.67;97795.85;1814175;79;20825;-64
2022/06/10 05:00:26;;;;;;;7.53;3.83;;;;;;;20.07;67.00;97791.79;1814118;79;20904;-61
2022/06/10 05:02:53;;;;;;;10.70;4.22;;;;;;;20.15;66.58;97793.52;1809145;79;20889;-59
2022/06/10 05:05:21;;;;;;;15.93;4.58;;;;;;;20.22;66.53;97793.70;1798400;79;21412;-63
2022/06/10 05:07:47;;;;;;;9.58;3.85;;;;;;;20.27;66.68;97796.14;1797986;79;21057;-61
2022/06/10 05:10:14;;;;;;;9.13;4.10;;;;;;;20.30;66.53;97792.69;1797990;79;20873;-63
2022/06/10 05:12:44;;;;;;;11.97;4.20;;;;;;;20.36;66.60;97799.99;1797961;79;20921;-60
2022/06/10 05:15:10;;;;;;;10.30;4.08;;;;;;;20.40;66.62;97798.13;1797814;79;20870;-59
2022/06/10 05:17:39;;;;;;;13.53;4.17;;;;;;;20.48;66.42;97805.86;1797974;79;20923;-58
2022/06/10 05:20:07;;;;;;;17.05;4.30;;;;;;;20.53;66.48;97803.64;1797962;79;21209;-60
2022/06/10 05:22:35;;;;;;;12.90;4.42;;;;;;;20.61;66.61;97805.94;1797892;79;20980;-63
2022/06/10 05:25:01;;;;;;;15.48;4.05;;;;;;;20.68;66.58;97814.23;1798067;79;20873;-61
2022/06/10 05:27:27;;;;;;;11.15;4.53;;;;;;;20.77;66.40;97811.50;1798254;79;21451;-59
2022/06/10 05:29:55;;;;;;;6.40;3.67;;;;;;;20.90;66.59;97813.47;1798156;79;21499;-58
2022/06/10 05:32:22;;;;;;;13.62;4.37;;;;;;;21.03;65.98;97821.70;1798432;79;21139;-62
2022/06/10 05:34:49;;;;;;;20.65;4.28;;;;;;;21.15;65.58;97818.80;1797825;79;20878;-62
2022/06/10 05:37:22;;;;;;;15.80;3.75;;;;;;;21.27;65.43;97821.34;1797998;79;20936;-62
2022/06/10 05:39:48;;;;;;;13.40;3.90;;;;;;;21.42;64.67;97823.16;1804882;78;21094;-61
2022/06/10 05:42:15;;;;;;;10.00;3.83;;;;;;;21.57;64.14;97829.63;1798434;79;21059;-58
2022/06/10 05:44:44;;;;;;;8.55;3.47;;;;;;;21.69;63.31;97830.20;1798889;79;21110;-58
2022/06/10 05:47:15;;;;;;;15.65;3.90;;;;;;;21.85;62.22;97834.76;1799623;79;21371;-63
2022/06/10 05:49:44;;;;;;;12.88;4.08;;;;;;;22.01;61.63;97827.20;1799208;79;20925;-65
2022/06/10 05:52:11;;;;;;;12.75;4.05;;;;;;;22.19;61.83;97830.94;1812506;78;20921;-60
2022/06/10 05:54:41;;;;;;;8.25;3.85;;;;;;;22.36;61.19;97830.39;1818000;78;20873;-61
2022/06/10 05:57:08;;;;;;;9.83;3.85;;;;;;;22.51;61.09;97829.42;1830729;78;21894;-59
2022/06/10 05:59:35;;;;;;;11.75;3.90;;;;;;;22.63;60.74;97837.41;1831314;78;20952;-63
2022/06/10 06:02:05;;;;;;;9.48;3.70;;;;;;;22.70;60.51;97834.75;1834164;77;20959;-60
2022/06/10 06:04:32;;;;;;;6.75;3.52;;;;;;;22.77;60.63;97837.56;1841753;77;21269;-61
2022/06/10 06:06:59;;;;;;;6.50;3.20;;;;;;;22.83;60.52;97841.52;1849014;77;20965;-61
2022/06/10 06:09:26;;;;;;;7.28;3.20;;;;;;;22.89;59.85;97841.38;1849746;77;21092;-61
2022/06/10 06:11:58;;;;;;;10.00;3.50;;;;;;;22.95;58.86;97845.93;1849455;77;20883;-59
2022/06/10 06:14:25;;;;;;;10.65;3.55;;;;;;;23.04;58.58;97850.51;1849350;77;20839;-59
2022/06/10 06:16:58;;;;;;;9.43;3.60;;;;;;;23.13;59.08;97850.41;1849451;77;20934;-64
2022/06/10 06:19:26;;;;;;;6.80;3.42;;;;;;;23.21;59.05;97847.75;1843324;77;20984;-63
2022/06/10 06:21:54;;;;;;;6.08;3.02;;;;;;;23.26;59.45;97848.20;1814181;79;21523;-61
2022/06/10 06:24:21;;;;;;;9.28;3.67;;;;;;;23.33;59.62;97850.20;1811138;79;20887;-66
2022/06/10 06:26:48;;;;;;;9.63;2.95;;;;;;;23.41;59.76;97857.35;1811165;79;20953;-70
2022/06/10 06:29:14;;;;;;;9.48;3.33;;;;;;;23.47;59.37;97862.09;1811263;79;20941;-62
2022/06/10 06:31:41;;;;;;;5.70;3.17;;;;;;;23.51;58.17;97860.16;1811166;79;20838;-63
2022/06/10 06:34:08;;;;;;;5.85;3.25;;;;;;;23.55;57.65;97861.58;1815423;78;21426;-62
2022/06/10 06:36:39;;;;;;;11.57;3.40;;;;;;;23.59;57.62;97860.44;1819798;77;20968;-64
2022/06/10 06:39:06;;;;;;;11.10;3.20;;;;;;;23.63;57.37;97856.35;1798982;78;21019;-63
2022/06/10 06:41:33;;;;;;;10.20;3.83;;;;;;;23.65;56.94;97859.48;1812428;78;21012;-59
2022/06/10 06:43:59;;;;;;;8.05;3.60;;;;;;;23.66;57.37;97859.70;1817972;77;21051;-58
2022/06/10 06:46:26;;;;;;;12.82;3.58;;;;;;;23.71;57.66;97860.72;1787745;79;21737;-61
2022/06/10 06:48:54;;;;;;;9.78;3.52;;;;;;;23.76;58.06;97864.48;1772245;80;20893;-59
2022/06/10 06:51:21;;;;;;;7.53;3.45;;;;;;;23.79;58.07;97861.75;1762881;81;20993;-58
2022/06/10 06:53:47;;;;;;;7.97;4.05;;;;;;;23.86;57.35;97861.02;1754000;81;21007;-60
2022/06/10 06:56:21;;;;;;;7.05;4.20;;;;;;;23.95;57.43;97862.86;1758621;80;21570;-59
2022/06/10 06:58:51;;;;;;;8.78;3.98;;;;;;;24.07;57.24;97868.03;1812502;78;21301;-58
2022/06/10 07:01:18;;;;;;;13.13;4.90;;;;;;;24.23;57.41;97865.02;1815061;78;20996;-61
2022/06/10 07:03:45;;;;;;;12.65;4.72;;;;;;;24.40;57.13;97867.83;1799123;77;21023;-60
2022/06/10 07:06:12;;;;;;;9.80;4.40;;;;;;;24.55;57.06;97863.79;1827732;77;20904;-59
2022/06/10 07:08:39;;;;;;;14.13;4.65;;;;;;;24.71;56.63;97866.98;1811836;77;20966;-58
2022/06/10 07:11:07;;;;;;;7.90;4.22;;;;;;;24.85;55.79;97868.44;1836507;77;21232;-59
2022/06/10 07:13:35;;;;;;;7.20;4.03;;;;;;;24.99;53.83;97873.98;1826908;78;21489;-61
2022/06/10 07:16:03;;;;;;;6.87;4.20;;;;;;;25.16;53.35;97867.74;1827621;77;20880;-60
2022/06/10 07:18:32;;;;;;;6.35;4.37;;;;;;;25.34;51.61;97873.27;1840468;77;21090;-61
2022/06/10 07:20:59;;;;;;;8.85;4.50;;;;;;;25.53;53.36;97876.44;1766599;81;21115;-60
2022/06/10 07:23:26;;;;;;;7.55;3.40;;;;;;;25.66;51.25;97880.38;1776219;80;21088;-62
2022/06/10 07:25:53;;;;;;;5.83;3.52;;;;;;;25.74;50.00;97875.68;1777358;80;20972;-60
2022/06/10 07:28:21;;;;;;;8.13;3.95;;;;;;;25.78;48.22;97866.27;1771326;80;21463;-61
2022/06/10 07:30:49;;;;;;;6.40;3.62;;;;;;;25.89;46.60;97865.45;1764028;80;21036;-57
2022/06/10 07:33:15;;;;;;;6.95;3.62;;;;;;;25.99;46.19;97864.67;1761680;80;21126;-61
2022/06/10 07:35:42;;;;;;;10.18;4.10;;;;;;;26.07;45.33;97867.61;1775847;80;21267;-60
2022/06/10 07:38:11;;;;;;;6.62;3.25;;;;;;;26.11;45.23;97864.30;1835021;77;21019;-59
2022/06/10 07:43:26;;;;;;;4.10;2.40;;;;;;;26.18;42.39;97871.14;1819429;77;20986;-61
2022/06/10 07:45:53;;;;;;;6.60;2.98;;;;;;;26.21;40.63;97871.15;1828154;77;21009;-63
2022/06/10 07:48:21;;;;;;;5.95;2.50;;;;;;;26.24;39.73;97873.66;1830807;78;21031;-65
2022/06/10 07:50:49;;;;;;;7.22;2.77;;;;;;;26.29;39.71;97876.02;1838918;77;20908;-64
2022/06/10 07:53:15;;;;;;;3.87;2.50;;;;;;;26.32;40.56;97875.23;1839230;78;21498;-65
2022/06/10 07:55:44;;;;;;;6.60;2.70;;;;;;;26.33;39.84;97879.55;1847874;77;21525;-64
2022/06/10 07:58:13;;;;;;;6.50;2.75;;;;;;;26.33;39.46;97871.31;1839441;77;21079;-60
2022/06/10 08:00:39;;;;;;;5.42;2.70;;;;;;;26.38;39.86;97872.26;1838319;77;21114;-68
2022/06/10 08:03:15;;;;;;;6.45;2.33;;;;;;;26.40;39.23;97869.92;1842502;77;20990;-65
2022/06/10 08:05:41;;;;;;;7.47;2.85;;;;;;;26.42;40.27;97877.17;1844607;77;20986;-60
2022/06/10 08:08:08;;;;;;;14.78;3.02;;;;;;;26.47;41.41;97874.02;1846183;77;20962;-61
2022/06/10 08:10:37;;;;;;;5.00;2.70;;;;;;;26.55;41.89;97871.42;1842866;77;21347;-62
2022/06/10 08:13:04;;;;;;;5.83;2.50;;;;;;;26.63;42.33;97866.11;1834900;77;22048;-62
2022/06/10 08:15:33;;;;;;;9.70;3.37;;;;;;;26.72;41.37;97878.83;1837563;77;20876;-62
2022/06/10 08:18:01;;;;;;;5.97;2.37;;;;;;;26.77;40.12;97869.41;1844507;77;21415;-65
2022/06/10 08:23:22;;;;;;;5.15;2.50;;;;;;;26.87;39.35;97876.83;1761626;80;21421;-62
2022/06/10 08:25:49;;;;;;;8.53;2.40;;;;;;;26.94;37.77;97875.42;1839181;77;21046;-66
2022/06/10 08:28:16;;;;;;;6.05;2.60;;;;;;;27.03;38.76;97877.14;1847337;77;20989;-67
2022/06/10 08:30:43;;;;;;;4.80;2.58;;;;;;;27.13;38.97;97874.31;1829229;77;21040;-64
2022/06/10 08:33:09;;;;;;;3.33;2.40;;;;;;;27.22;38.63;97871.73;1818250;79;21084;-59
2022/06/10 08:35:37;;;;;;;2.47;2.25;;;;;;;27.28;38.00;97868.73;1828819;77;21432;-68
2022/06/10 08:38:07;;;;;;;12.07;2.67;;;;;;;27.33;38.64;97877.94;1834367;77;21011;-59
2022/06/10 08:40:43;;;;;;;7.72;2.30;;;;;;;27.44;40.10;97877.32;1832826;78;21400;-69
2022/06/10 08:43:33;;;;;;;8.15;2.33;;;;;;;27.53;40.04;97874.89;1835800;77;21428;-64
2022/06/10 08:46:20;;;;;;;4.67;2.20;;;;;;;27.64;38.84;97881.09;1733960;81;21033;-66
2022/06/10 08:49:07;;;;;;;5.65;2.58;;;;;;;27.72;38.01;97874.35;1766041;81;21479;-69
2022/06/10 08:51:49;;;;;;;12.35;3.08;;;;;;;27.85;37.62;97880.13;1767348;80;21558;-62
2022/06/10 08:54:24;;;;;;;4.70;2.22;;;;;;;27.95;36.84;97869.03;1761258;80;21019;-65
2022/06/10 08:56:56;;;;;;;7.30;2.45;;;;;;;28.11;37.35;97875.39;1757205;80;20913;-63
2022/06/10 08:59:29;;;;;;;4.03;1.87;;;;;;;28.23;36.56;97873.51;1762784;80;21352;-63
2022/06/10 09:02:32;;;;;;;6.25;2.50;;;;;;;28.31;36.04;97868.88;1755351;80;20912;-64
2022/06/10 09:05:21;;;;;;;4.92;2.02;;;;;;;28.43;36.63;97875.25;1819630;78;21057;-59
2022/06/10 09:07:58;;;;;;;3.67;1.90;;;;;;;28.58;34.69;97875.88;1814637;79;21281;-57
2022/06/10 09:10:46;;;;;;;3.27;1.82;;;;;;;28.66;34.22;97876.61;1814174;78;21082;-60
2022/06/10 09:13:39;;;;;;;8.63;1.80;;;;;;;28.78;35.35;97876.07;1805121;79;21626;-64
2022/06/10 09:16:33;;;;;;;5.03;2.02;;;;;;;28.92;34.73;97875.89;1814126;79;21443;-58
2022/06/10 09:19:22;;;;;;;4.78;1.90;;;;;;;28.96;33.71;97875.23;1814073;78;21113;-61
2022/06/10 09:22:26;;;;;;;4.47;1.85;;;;;;;29.00;34.23;97873.20;1815762;79;20962;-64
2022/06/10 09:25:13;;;;;;;4.30;1.80;;;;;;;29.12;34.21;97883.68;1815551;78;20919;-60
2022/06/10 09:27:44;;;;;;;6.67;1.75;;;;;;;29.28;33.91;97878.35;1815603;79;20931;-63
2022/06/10 09:30:22;;;;;;;5.92;1.90;;;;;;;29.43;33.56;97892.73;1794278;79;20939;-60
2022/06/10 09:33:09;;;;;;;2.50;1.52;;;;;;;29.53;34.23;97884.30;1815161;79;21281;-62
2022/06/10 09:36:01;;;;;;;3.10;1.60;;;;;;;29.61;33.41;97884.36;1799062;79;21604;-60
2022/06/10 09:38:42;;;;;;;2.30;1.57;;;;;;;29.67;32.61;97881.32;1814814;79;20962;-62
2022/06/10 09:41:43;;;;;;;1.90;1.25;;;;;;;29.77;32.96;97877.61;1787789;78;21471;-61
2022/06/10 09:44:33;;;;;;;5.22;1.80;;;;;;;29.89;31.34;97875.48;1812950;79;21529;-64
2022/06/10 09:47:24;;;;;;;6.45;1.90;;;;;;;29.93;30.12;97876.98;1815954;78;21374;-62
2022/06/10 09:50:18;;;;;;;3.98;2.08;;;;;;;29.88;31.48;97875.28;1771091;79;21395;-60
2022/06/10 09:53:06;;;;;;;3.92;2.10;;;;;;;29.93;31.86;97872.84;1822199;77;20896;-60
2022/06/10 09:56:06;;;;;;;3.40;1.87;;;;;;;30.08;31.18;97873.34;1837870;78;20940;-58
2022/06/10 09:58:54;;;;;;;5.72;1.70;;;;;;;30.19;31.00;97878.09;1829787;77;21498;-60
2022/06/10 10:01:31;;;;;;;2.47;1.57;;;;;;;30.29;30.81;97879.89;1841392;77;21177;-65
2022/06/10 10:04:13;;;;;;;3.10;1.50;;;;;;;30.40;29.47;97880.49;1839221;77;21002;-63
2022/06/10 10:07:02;;;;;;;4.58;1.70;;;;;;;30.41;29.87;97879.27;1760699;80;21409;-65
2022/06/10 10:09:59;;;;;;;3.95;1.60;;;;;;;30.45;29.71;97875.86;1765716;80;20964;-58
2022/06/10 10:12:53;;;;;;;7.25;1.92;;;;;;;30.45;31.13;97877.24;1756755;80;21071;-65
2022/06/10 10:15:48;;;;;;;3.50;1.65;;;;;;;30.54;32.21;97881.60;1715587;80;21574;-62
2022/06/10 10:18:35;;;;;;;2.55;1.60;;;;;;;30.70;30.73;97886.41;1726786;80;21055;-62
2022/06/10 10:21:21;;;;;;;5.55;1.70;;;;;;;30.79;30.27;97887.41;1769451;80;20846;-60
2022/06/10 10:23:52;;;;;;;2.25;1.30;;;;;;;30.79;30.59;97887.41;1735075;80;20927;-67
2022/06/10 10:26:30;;;;;;;6.62;1.70;;;;;;;30.83;29.19;97885.34;1761552;80;20924;-65
2022/06/10 10:29:17;;;;;;;2.58;1.70;;;;;;;30.87;29.39;97884.69;1797416;79;21057;-64
2022/06/10 10:32:20;;;;;;;5.25;2.40;;;;;;;30.95;29.29;97880.58;1806056;77;20880;-63
2022/06/10 10:34:52;;;;;;;5.33;1.95;;;;;;;31.04;29.64;97883.53;1804258;77;21070;-63
2022/06/10 10:37:29;;;;;;;6.85;2.55;;;;;;;31.06;30.58;97880.36;1835557;77;21441;-59
2022/06/10 10:40:01;;;;;;;10.00;2.40;;;;;;;30.78;30.60;97883.09;1838761;77;21565;-64
2022/06/10 10:42:33;;;;;;;7.67;2.65;;;;;;;30.31;32.22;97888.53;1838259;77;21138;-59
2022/06/10 10:45:06;;;;;;;10.85;2.98;;;;;;;29.87;32.33;97879.23;1772760;79;20905;-65
2022/06/10 10:47:35;;;;;;;6.15;2.33;;;;;;;29.58;33.68;97879.66;1765684;80;20905;-64
2022/06/10 10:50:14;;;;;;;5.03;2.62;;;;;;;29.58;33.95;97879.66;1807557;78;21506;-60
2022/06/10 10:52:42;;;;;;;3.98;2.60;;;;;;;29.71;33.54;97873.76;1834793;77;21023;-60
2022/06/10 10:55:18;;;;;;;7.62;2.30;;;;;;;29.83;34.09;97876.55;1825538;77;21223;-60
2022/06/10 10:57:59;;;;;;;5.83;2.77;;;;;;;29.89;33.34;97873.47;1830897;77;21013;-65
2022/06/10 11:00:33;;;;;;;11.00;2.15;;;;;;;29.96;33.28;97874.73;1813707;78;21024;-63
2022/06/10 11:03:03;;;;;;;3.67;2.00;;;;;;;30.02;33.80;97876.42;1828647;77;20995;-60
2022/06/10 11:05:36;;;;;;;3.08;1.87;;;;;;;30.07;33.91;97871.20;1831504;77;20966;-64
2022/06/10 11:08:34;;;;;;;3.33;2.10;;;;;;;30.17;32.60;97872.22;1815264;77;21534;-64
2022/06/10 11:11:24;;;;;;;3.72;1.92;;;;;;;30.26;31.89;97877.38;1842878;77;20860;-61
2022/06/10 11:13:59;;;;;;;4.65;2.20;;;;;;;30.41;32.50;97874.53;1829318;77;20975;-64
2022/06/10 11:16:38;;;;;;;5.20;1.82;;;;;;;30.57;32.15;97868.33;1826019;78;20967;-63
2022/06/10 11:19:33;;;;;;;5.50;2.10;;;;;;;30.63;32.07;97867.99;1822837;77;20935;-59
2022/06/10 11:22:09;;;;;;;3.67;1.65;;;;;;;30.57;32.37;97867.54;1821151;77;21093;-61
2022/06/10 11:24:42;;;;;;;5.20;1.70;;;;;;;30.49;30.64;97870.25;1826718;77;20965;-64
2022/06/10 11:27:35;;;;;;;3.12;2.00;;;;;;;30.37;31.00;97861.99;1819363;77;21029;-65
2022/06/10 11:30:17;;;;;;;7.70;2.00;;;;;;;30.30;31.66;97869.00;1832003;77;21049;-62
2022/06/10 11:32:53;;;;;;;3.70;1.92;;;;;;;30.13;31.40;97874.24;1846689;77;21111;-60
2022/06/10 11:35:38;;;;;;;3.70;2.00;;;;;;;29.91;31.60;97873.08;1819942;77;21463;-59
2022/06/10 11:38:23;;;;;;;5.53;2.30;;;;;;;29.82;32.62;97867.31;1847198;77;20954;-58
2022/06/10 11:40:56;;;;;;;3.85;2.15;;;;;;;29.71;32.31;97866.86;1818746;77;20956;-63
2022/06/10 11:43:36;;;;;;;4.08;2.10;;;;;;;29.50;32.53;97870.55;1826909;77;20997;-60
2022/06/10 11:46:13;;;;;;;5.05;2.30;;;;;;;29.27;33.10;97871.89;1820980;77;21075;-62
2022/06/10 11:48:58;;;;;;;10.48;2.40;;;;;;;29.04;34.78;97873.95;1830746;77;21058;-60
2022/06/10 11:51:35;;;;;;;4.97;2.52;;;;;;;28.90;35.68;97882.42;1815406;77;20871;-61
2022/06/10 11:54:30;;;;;;;7.55;2.22;;;;;;;28.73;37.16;97876.52;1837902;77;33462;-68
2022/06/10 12:00:41;;;;;;;2.62;1.92;;;;;;;28.34;39.60;97872.20;1835070;77;20940;-61
2022/06/10 12:03:19;;;;;;;4.10;2.30;;;;;;;28.01;38.45;97871.55;1846530;77;21098;-64
2022/06/10 12:06:05;;;;;;;4.65;2.00;;;;;;;27.78;38.01;97865.84;1823497;77;21788;-61
2022/06/10 12:08:48;;;;;;;6.15;2.15;;;;;;;27.78;37.79;97867.22;1809262;77;20878;-59
2022/06/10 12:11:46;;;;;;;2.77;2.00;;;;;;;28.04;37.49;97860.33;1822311;77;21002;-61
2022/06/10 12:14:27;;;;;;;3.45;1.92;;;;;;;28.44;36.05;97853.41;1822396;77;20977;-61
2022/06/10 12:17:07;;;;;;;6.20;1.77;;;;;;;28.96;34.81;97849.83;1816760;77;21166;-60
2022/06/10 12:19:45;;;;;;;6.25;2.30;;;;;;;29.42;33.78;97850.56;1832950;77;20949;-59
2022/06/10 12:22:13;;;;;;;5.12;1.75;;;;;;;29.83;34.10;97839.28;1810435;77;20929;-60
2022/06/10 12:24:40;;;;;;;4.20;2.20;;;;;;;30.30;32.40;97840.00;1816452;77;21047;-58
2022/06/10 12:27:15;;;;;;;2.27;1.82;;;;;;;30.65;31.69;97844.06;1830032;77;21070;-57